Time;durP1;ratioP1;P1;durP2;ratioP2;P2;SDS_P1;SDS_P2;PMS_P1;PMS_P2;Temp;Humidity;BMP_temperature;BMP_pressure;BME280_temperature;BME280_humidity;BME280_pressure;Samples;Min_cycle;Max_cycle;Signal;HPM_P1;HPM_P2
2023/11/18 00:00:14;;;;;;;5.20;3.40;;;8.50;99.90;;;;;;5037200;28;20124;-75
2023/11/18 00:02:42;;;;;;;4.22;3.28;;;8.60;99.90;;;;;;5034258;28;20048;-75
2023/11/18 00:05:11;;;;;;;5.95;3.45;;;8.70;99.90;;;;;;5038698;28;20029;-73
2023/11/18 00:07:38;;;;;;;6.00;3.80;;;8.70;99.90;;;;;;5042900;28;20041;-75
2023/11/18 00:10:06;;;;;;;4.35;3.70;;;8.80;99.90;;;;;;5041686;28;20111;-74
2023/11/18 00:12:36;;;;;;;4.38;3.60;;;8.80;99.90;;;;;;5041690;28;20055;-75
2023/11/18 00:15:05;;;;;;;3.72;3.33;;;8.80;99.90;;;;;;5044048;28;20119;-76
2023/11/18 00:17:32;;;;;;;4.95;3.40;;;8.70;99.90;;;;;;5040237;28;20072;-75
2023/11/18 00:19:59;;;;;;;3.50;3.20;;;8.80;99.90;;;;;;5039940;28;20037;-75
2023/11/18 00:22:27;;;;;;;3.88;3.47;;;8.80;99.90;;;;;;5042235;28;20053;-72
2023/11/18 00:24:55;;;;;;;3.80;3.50;;;8.90;99.90;;;;;;5041684;28;20118;-72
2023/11/18 00:27:22;;;;;;;3.90;3.50;;;8.90;99.90;;;;;;5038326;28;21367;-71
2023/11/18 00:29:50;;;;;;;3.60;3.30;;;8.70;99.90;;;;;;5042355;28;20130;-74
2023/11/18 00:32:17;;;;;;;5.82;3.50;;;8.70;99.90;;;;;;5044829;28;20400;-70
2023/11/18 00:34:45;;;;;;;3.70;3.40;;;8.70;99.90;;;;;;5039419;28;20396;-72
2023/11/18 00:37:13;;;;;;;3.80;3.47;;;8.80;99.90;;;;;;5038299;28;20702;-73
2023/11/18 00:39:41;;;;;;;3.88;3.47;;;8.70;99.90;;;;;;5042387;28;20124;-75
2023/11/18 00:42:08;;;;;;;3.58;3.28;;;8.70;99.90;;;;;;5039170;28;20046;-75
2023/11/18 00:44:35;;;;;;;3.55;3.25;;;8.80;99.90;;;;;;5040895;28;20103;-75
2023/11/18 00:47:03;;;;;;;4.93;3.30;;;8.90;99.90;;;;;;5039411;28;20042;-75
2023/11/18 00:49:30;;;;;;;3.50;3.20;;;8.90;99.90;;;;;;5044316;28;20171;-76
2023/11/18 00:51:58;;;;;;;3.50;3.20;;;8.90;99.90;;;;;;5035940;28;20392;-75
2023/11/18 00:54:26;;;;;;;3.88;3.40;;;8.80;99.90;;;;;;5041521;28;20141;-73
2023/11/18 00:56:54;;;;;;;3.53;3.20;;;8.80;99.90;;;;;;5035406;28;20088;-76
2023/11/18 00:59:21;;;;;;;3.53;3.22;;;8.90;99.90;;;;;;5038026;28;20065;-73
2023/11/18 01:01:49;;;;;;;4.22;3.40;;;9.00;99.90;;;;;;5042035;28;20496;-75
2023/11/18 01:04:47;;;;;;;4.15;3.70;;;9.00;99.90;;;;;;5040112;28;20127;-72
2023/11/18 01:07:15;;;;;;;4.93;3.90;;;9.00;99.90;;;;;;5040800;28;20036;-73
2023/11/18 01:09:43;;;;;;;4.97;3.70;;;9.00;99.90;;;;;;5043108;28;20391;-74
2023/11/18 01:12:10;;;;;;;4.03;3.45;;;9.00;99.90;;;;;;5041765;28;20044;-73
2023/11/18 01:14:38;;;;;;;5.30;4.10;;;9.00;99.90;;;;;;5036205;28;20038;-72
2023/11/18 01:17:07;;;;;;;7.47;4.43;;;9.00;99.90;;;;;;5033803;28;20465;-71
2023/11/18 01:19:34;;;;;;;5.95;4.30;;;9.00;99.90;;;;;;5039322;28;20051;-71
2023/11/18 01:22:05;;;;;;;4.95;4.35;;;8.90;99.90;;;;;;5042166;28;20052;-71
2023/11/18 01:24:33;;;;;;;5.47;4.18;;;8.90;99.90;;;;;;5026453;28;20050;-70
2023/11/18 01:27:01;;;;;;;6.15;4.78;;;8.70;99.90;;;;;;5037329;28;20041;-71
2023/11/18 01:29:28;;;;;;;5.60;4.43;;;8.70;99.90;;;;;;5038015;28;20103;-71
2023/11/18 01:31:56;;;;;;;6.82;4.35;;;8.80;99.90;;;;;;5036691;28;20120;-71
2023/11/18 01:34:23;;;;;;;4.60;4.10;;;8.70;99.90;;;;;;5035517;28;20057;-72
2023/11/18 01:36:51;;;;;;;5.22;4.40;;;8.80;99.90;;;;;;5040933;28;20041;-71
2023/11/18 01:39:18;;;;;;;6.35;4.13;;;8.80;99.90;;;;;;5034047;28;20068;-70
2023/11/18 01:41:45;;;;;;;7.55;6.43;;;8.80;99.90;;;;;;5037538;28;20056;-72
2023/11/18 01:44:17;;;;;;;4.68;4.13;;;8.60;99.90;;;;;;5039097;28;20087;-71
2023/11/18 01:46:45;;;;;;;7.95;4.07;;;8.20;99.90;;;;;;5035562;28;20124;-72
2023/11/18 01:49:14;;;;;;;4.43;3.63;;;8.20;99.90;;;;;;5039532;28;20048;-71
2023/11/18 01:51:46;;;;;;;4.75;4.20;;;8.30;99.90;;;;;;5039355;28;20052;-72
2023/11/18 01:54:32;;;;;;;4.75;3.75;;;8.40;99.90;;;;;;5035886;28;20035;-71
2023/11/18 01:57:02;;;;;;;4.95;3.78;;;8.40;99.90;;;;;;5037732;28;20459;-74
2023/11/18 01:59:29;;;;;;;4.15;3.75;;;8.50;99.90;;;;;;5032562;28;20033;-71
2023/11/18 02:01:59;;;;;;;4.18;3.60;;;8.60;99.90;;;;;;5038101;28;20423;-74
2023/11/18 02:04:27;;;;;;;4.13;3.72;;;8.60;99.90;;;;;;5041464;28;20037;-73
2023/11/18 02:06:56;;;;;;;4.43;3.85;;;8.60;99.90;;;;;;5038358;28;20079;-73
2023/11/18 02:09:30;;;;;;;4.35;3.95;;;8.60;99.90;;;;;;5040597;28;20095;-76
2023/11/18 02:12:16;;;;;;;4.28;3.88;;;8.60;99.90;;;;;;5035153;28;20037;-75
2023/11/18 02:14:45;;;;;;;4.70;4.03;;;8.60;99.90;;;;;;5035145;28;20123;-74
2023/11/18 02:17:16;;;;;;;4.30;3.90;;;8.50;99.90;;;;;;5041698;28;20044;-75
2023/11/18 02:19:44;;;;;;;4.60;4.00;;;8.50;99.90;;;;;;5036182;28;20092;-74
2023/11/18 02:22:12;;;;;;;4.22;3.83;;;8.50;99.90;;;;;;5036985;28;20498;-74
2023/11/18 02:24:41;;;;;;;4.95;4.05;;;8.40;99.90;;;;;;5039508;28;20133;-72
2023/11/18 02:27:11;;;;;;;4.68;4.10;;;8.40;99.90;;;;;;5038229;28;20079;-74
2023/11/18 02:29:45;;;;;;;4.40;4.00;;;8.30;99.90;;;;;;5032966;28;20091;-75
2023/11/18 02:32:27;;;;;;;7.05;4.13;;;8.40;99.90;;;;;;5038734;28;20125;-73
2023/11/18 02:35:19;;;;;;;4.28;3.88;;;8.30;99.90;;;;;;5035682;28;20033;-74
2023/11/18 02:37:49;;;;;;;4.78;4.13;;;8.30;99.90;;;;;;5038545;28;20098;-74
2023/11/18 02:40:20;;;;;;;4.70;4.10;;;8.30;99.90;;;;;;5040330;28;20099;-74
2023/11/18 02:43:05;;;;;;;4.40;4.00;;;8.30;99.90;;;;;;5032262;28;20637;-75
2023/11/18 02:45:35;;;;;;;5.43;3.97;;;8.30;99.90;;;;;;5036166;28;20036;-73
2023/11/18 02:48:06;;;;;;;4.80;4.30;;;8.30;99.90;;;;;;5030187;28;20037;-73
2023/11/18 02:50:37;;;;;;;4.50;4.10;;;8.20;99.90;;;;;;5040375;28;20061;-73
2023/11/18 02:53:05;;;;;;;4.30;3.90;;;8.30;99.90;;;;;;5038876;28;20037;-73
2023/11/18 02:55:32;;;;;;;4.20;3.80;;;8.30;99.90;;;;;;5035834;28;20037;-73
2023/11/18 02:58:19;;;;;;;7.25;4.22;;;8.20;99.90;;;;;;5039944;28;20021;-73
2023/11/18 03:00:46;;;;;;;6.32;4.97;;;8.20;99.90;;;;;;5035174;28;20141;-73
2023/11/18 03:03:14;;;;;;;5.10;4.07;;;8.30;99.90;;;;;;5035278;28;20041;-72
2023/11/18 03:05:41;;;;;;;4.88;4.00;;;8.10;99.90;;;;;;5026508;28;20037;-75
2023/11/18 03:08:08;;;;;;;5.03;4.10;;;8.10;99.90;;;;;;5037193;28;20120;-75
2023/11/18 03:10:37;;;;;;;5.30;3.90;;;8.20;99.90;;;;;;5034918;28;20397;-75
2023/11/18 03:13:04;;;;;;;5.03;4.32;;;8.00;99.90;;;;;;5034643;28;20397;-74
2023/11/18 03:15:32;;;;;;;5.70;4.30;;;8.00;99.90;;;;;;5039454;28;20041;-73
2023/11/18 03:17:59;;;;;;;4.53;4.13;;;8.00;99.90;;;;;;5037178;28;20041;-74
2023/11/18 03:20:26;;;;;;;4.90;4.38;;;8.10;99.90;;;;;;5028576;28;20398;-73
2023/11/18 03:23:11;;;;;;;5.45;4.20;;;7.80;99.90;;;;;;5027493;28;20057;-77
2023/11/18 03:25:38;;;;;;;5.88;4.43;;;7.80;99.90;;;;;;5036758;28;20100;-75
2023/11/18 03:28:06;;;;;;;6.75;4.60;;;7.80;99.90;;;;;;5036163;28;20055;-75
2023/11/18 03:30:36;;;;;;;6.40;4.18;;;7.80;99.90;;;;;;5032983;28;20436;-73
2023/11/18 03:33:04;;;;;;;7.47;4.55;;;7.90;99.30;;;;;;5034787;28;20029;-74
2023/11/18 03:35:32;;;;;;;5.57;4.40;;;7.80;99.50;;;;;;5034366;28;20048;-75
2023/11/18 03:37:59;;;;;;;4.93;4.30;;;7.80;99.20;;;;;;5032035;28;20519;-74
2023/11/18 03:40:45;;;;;;;5.10;4.53;;;7.60;99.60;;;;;;5036610;28;20029;-76
2023/11/18 03:43:13;;;;;;;5.15;4.47;;;7.80;99.10;;;;;;5038398;28;20458;-76
2023/11/18 03:45:41;;;;;;;4.38;3.90;;;7.70;97.80;;;;;;5037562;28;20042;-79
2023/11/18 03:48:08;;;;;;;5.05;4.55;;;7.70;98.20;;;;;;5040809;28;20385;-77
2023/11/18 03:50:36;;;;;;;5.70;4.22;;;7.70;98.30;;;;;;5045198;28;20033;-75
2023/11/18 03:53:03;;;;;;;5.03;4.50;;;7.70;98.60;;;;;;5037390;28;20037;-76
2023/11/18 03:55:30;;;;;;;5.10;4.60;;;7.50;98.00;;;;;;5042538;28;20037;-75
2023/11/18 03:57:58;;;;;;;4.95;4.45;;;7.70;98.00;;;;;;5039874;28;20122;-73
2023/11/18 04:00:29;;;;;;;4.97;4.47;;;7.40;98.50;;;;;;5035989;28;20053;-75
2023/11/18 04:02:57;;;;;;;5.00;4.50;;;7.30;98.00;;;;;;5041255;28;20437;-79
2023/11/18 04:05:25;;;;;;;94.22;9.93;;;7.30;98.50;;;;;;5034374;28;20505;-76
2023/11/18 04:07:52;;;;;;;5.00;4.45;;;7.50;98.00;;;;;;5040942;28;20042;-76
2023/11/18 04:10:20;;;;;;;5.40;4.30;;;7.40;95.70;;;;;;5038348;28;20048;-74
2023/11/18 04:12:48;;;;;;;6.80;4.50;;;7.40;97.20;;;;;;5037940;28;20040;-72
2023/11/18 04:15:15;;;;;;;4.57;4.18;;;7.40;97.60;;;;;;5042787;28;20396;-75
2023/11/18 04:17:44;;;;;;;5.00;4.50;;;7.40;96.40;;;;;;5038385;28;20040;-75
2023/11/18 04:20:12;;;;;;;5.18;4.68;;;7.30;96.00;;;;;;5035090;28;20036;-74
2023/11/18 04:22:43;;;;;;;4.50;4.10;;;7.30;96.20;;;;;;5038296;28;20045;-74
2023/11/18 04:25:11;;;;;;;4.90;4.40;;;7.30;95.80;;;;;;5043099;28;20124;-74
2023/11/18 04:27:57;;;;;;;5.40;4.40;;;7.50;96.00;;;;;;5036052;28;20021;-74
2023/11/18 04:30:26;;;;;;;5.97;4.40;;;7.50;95.40;;;;;;5040733;28;20045;-72
2023/11/18 04:32:54;;;;;;;5.40;4.43;;;7.40;95.90;;;;;;5038779;28;20030;-72
2023/11/18 04:35:22;;;;;;;6.50;4.45;;;7.40;95.00;;;;;;5037421;28;20478;-72
2023/11/18 04:37:49;;;;;;;6.50;4.50;;;7.50;94.00;;;;;;5041500;28;20138;-75
2023/11/18 04:40:16;;;;;;;5.43;4.80;;;7.50;93.70;;;;;;5042399;28;20523;-75
2023/11/18 04:42:44;;;;;;;4.60;4.20;;;7.50;93.90;;;;;;5033180;28;20033;-74
2023/11/18 04:45:14;;;;;;;5.80;4.22;;;7.30;93.90;;;;;;5039386;28;20719;-74
2023/11/18 04:47:43;;;;;;;5.00;4.50;;;7.50;94.50;;;;;;5042863;28;20033;-74
2023/11/18 04:50:11;;;;;;;5.10;4.38;;;7.50;94.20;;;;;;5039204;28;20429;-73
2023/11/18 04:52:38;;;;;;;4.55;4.15;;;7.40;94.10;;;;;;5046873;28;20040;-77
2023/11/18 04:55:06;;;;;;;5.07;4.57;;;7.20;94.30;;;;;;5036169;28;20037;-75
2023/11/18 04:57:33;;;;;;;5.38;4.40;;;7.40;94.70;;;;;;5039855;28;20455;-77
2023/11/18 05:00:10;;;;;;;5.70;4.35;;;7.50;94.10;;;;;;5040423;28;20041;-77
2023/11/18 05:02:38;;;;;;;4.88;4.38;;;7.40;93.80;;;;;;5039196;28;20037;-75
2023/11/18 05:05:06;;;;;;;4.78;4.20;;;7.40;94.20;;;;;;5033067;28;20041;-76
2023/11/18 05:07:34;;;;;;;6.00;4.20;;;7.40;93.80;;;;;;5033905;28;20033;-75
2023/11/18 05:10:08;;;;;;;5.00;4.50;;;7.40;93.50;;;;;;5043463;28;20466;-73
2023/11/18 05:12:39;;;;;;;4.72;4.15;;;7.40;93.50;;;;;;5034382;28;20095;-72
2023/11/18 05:15:10;;;;;;;4.85;4.28;;;7.50;92.90;;;;;;5040507;28;20433;-74
2023/11/18 05:17:37;;;;;;;4.72;4.20;;;7.50;93.30;;;;;;5034277;28;20079;-73
2023/11/18 05:20:10;;;;;;;4.90;4.40;;;7.50;93.60;;;;;;5037727;28;20041;-74
2023/11/18 05:22:38;;;;;;;5.90;4.60;;;7.50;93.70;;;;;;5036090;28;20040;-72
2023/11/18 05:25:07;;;;;;;4.70;4.30;;;7.50;93.80;;;;;;5038092;28;20140;-74
2023/11/18 05:27:34;;;;;;;4.50;4.10;;;7.40;93.90;;;;;;5035075;28;20531;-74
2023/11/18 05:30:20;;;;;;;4.97;4.47;;;7.50;93.80;;;;;;5037910;28;20068;-73
2023/11/18 05:32:47;;;;;;;6.15;4.50;;;7.40;93.80;;;;;;5035208;28;20073;-73
2023/11/18 05:35:15;;;;;;;5.88;4.50;;;7.50;94.10;;;;;;5037616;28;20041;-73
2023/11/18 05:37:43;;;;;;;8.57;4.40;;;7.40;94.20;;;;;;5041182;28;20123;-73
2023/11/18 05:40:15;;;;;;;6.30;4.68;;;7.40;93.80;;;;;;5041804;28;20033;-72
2023/11/18 05:42:46;;;;;;;5.95;4.50;;;7.30;94.10;;;;;;5037062;28;20140;-72
2023/11/18 05:45:27;;;;;;;6.10;4.47;;;7.30;93.80;;;;;;5038601;28;20064;-73
2023/11/18 05:47:55;;;;;;;6.07;4.60;;;7.30;93.70;;;;;;5039081;28;20503;-75
2023/11/18 05:50:24;;;;;;;6.55;4.38;;;7.40;93.80;;;;;;5040700;28;20033;-72
2023/11/18 05:52:53;;;;;;;4.65;4.00;;;7.40;94.50;;;;;;5038963;28;20065;-73
2023/11/18 05:55:20;;;;;;;4.60;4.20;;;7.50;94.60;;;;;;5037970;28;20034;-74
2023/11/18 05:57:47;;;;;;;5.47;4.35;;;7.40;94.00;;;;;;5042954;28;20064;-74
2023/11/18 06:00:18;;;;;;;5.80;4.47;;;7.50;94.20;;;;;;5031136;28;20558;-74
2023/11/18 06:02:56;;;;;;;5.57;4.25;;;7.50;94.20;;;;;;5040032;28;20041;-75
2023/11/18 06:05:26;;;;;;;4.78;4.28;;;7.50;94.00;;;;;;5034661;28;20049;-74
2023/11/18 06:07:53;;;;;;;4.55;4.13;;;7.30;94.20;;;;;;5022549;28;20480;-76
2023/11/18 06:10:21;;;;;;;5.10;4.35;;;7.20;94.40;;;;;;5040623;28;20048;-75
2023/11/18 06:12:49;;;;;;;4.93;4.30;;;7.40;94.00;;;;;;5039702;28;20041;-75
2023/11/18 06:15:18;;;;;;;4.60;3.92;;;7.30;94.10;;;;;;5037330;28;20068;-74
2023/11/18 06:17:46;;;;;;;5.20;4.53;;;7.40;94.40;;;;;;5037317;28;20041;-76
2023/11/18 06:20:14;;;;;;;6.05;4.20;;;7.50;94.10;;;;;;5037372;28;20083;-75
2023/11/18 06:22:41;;;;;;;5.38;4.40;;;7.70;93.90;;;;;;5033382;28;20041;-76
2023/11/18 06:25:09;;;;;;;4.88;4.38;;;7.70;94.10;;;;;;5043083;28;20073;-72
2023/11/18 06:27:36;;;;;;;4.80;4.30;;;7.60;93.90;;;;;;5034298;28;20038;-70
2023/11/18 06:30:23;;;;;;;4.78;4.28;;;7.60;93.80;;;;;;5037881;28;20052;-71
2023/11/18 06:32:50;;;;;;;4.80;4.30;;;7.70;93.80;;;;;;5042442;28;20389;-72
2023/11/18 06:35:19;;;;;;;5.95;4.30;;;7.60;93.90;;;;;;5038830;28;20030;-71
2023/11/18 06:37:47;;;;;;;7.07;4.55;;;7.60;94.00;;;;;;5038917;28;20092;-73
2023/11/18 06:40:18;;;;;;;5.22;4.72;;;7.50;94.20;;;;;;5039765;28;20040;-72
2023/11/18 06:42:47;;;;;;;4.90;4.40;;;7.50;94.30;;;;;;5035233;28;20047;-72
2023/11/18 06:45:15;;;;;;;4.78;4.30;;;7.40;94.10;;;;;;5033896;28;20127;-72
2023/11/18 06:47:45;;;;;;;8.10;4.60;;;7.40;94.40;;;;;;5037167;28;20208;-76
2023/11/18 06:50:14;;;;;;;4.70;4.20;;;7.40;94.20;;;;;;5034864;28;20056;-74
2023/11/18 06:52:41;;;;;;;5.00;4.38;;;7.30;94.30;;;;;;5036716;28;20492;-72
2023/11/18 06:55:13;;;;;;;5.25;4.70;;;7.30;94.60;;;;;;5027118;28;20088;-74
2023/11/18 06:57:43;;;;;;;5.47;4.50;;;7.30;94.60;;;;;;5033589;28;20457;-73
2023/11/18 07:00:14;;;;;;;5.00;4.50;;;7.40;94.50;;;;;;5033137;28;20037;-72
2023/11/18 07:02:41;;;;;;;5.07;4.53;;;7.30;94.70;;;;;;5038148;28;20053;-72
2023/11/18 07:05:09;;;;;;;5.55;4.75;;;7.20;94.90;;;;;;5034969;28;20038;-73
2023/11/18 07:07:37;;;;;;;5.20;4.50;;;7.20;95.20;;;;;;5031992;28;20171;-73
2023/11/18 07:10:05;;;;;;;4.82;4.32;;;7.20;95.50;;;;;;5034812;28;20042;-75
2023/11/18 07:12:38;;;;;;;5.57;4.43;;;7.10;95.70;;;;;;5040390;28;20497;-74
2023/11/18 07:15:05;;;;;;;4.60;4.20;;;7.10;96.00;;;;;;5037995;28;20040;-74
2023/11/18 07:17:34;;;;;;;4.60;4.20;;;7.20;95.50;;;;;;5041944;28;20087;-77
2023/11/18 07:20:02;;;;;;;23.52;14.02;;;7.30;94.90;;;;;;5034821;28;20095;-75
2023/11/18 07:22:29;;;;;;;78.78;37.85;;;7.70;96.00;;;;;;5041233;28;20048;-75
2023/11/18 07:24:57;;;;;;;29.88;18.77;;;8.00;95.20;;;;;;5041293;28;20077;-77
2023/11/18 07:27:28;;;;;;;41.92;26.73;;;8.30;95.20;;;;;;5044297;28;20114;-76
2023/11/18 07:29:57;;;;;;;9.48;8.48;;;8.40;93.90;;;;;;5036955;28;20111;-75
2023/11/18 07:32:25;;;;;;;22.20;14.20;;;8.10;93.50;;;;;;5035181;28;20396;-76
2023/11/18 07:34:55;;;;;;;8.25;7.45;;;8.30;93.10;;;;;;5030060;28;20274;-74
2023/11/18 07:37:23;;;;;;;6.60;6.00;;;8.20;93.40;;;;;;5041819;28;20025;-74
2023/11/18 07:39:50;;;;;;;6.95;4.90;;;8.20;93.50;;;;;;5039220;28;20438;-74
2023/11/18 07:42:18;;;;;;;4.63;3.80;;;8.10;93.10;;;;;;5043431;28;20196;-73
2023/11/18 07:44:45;;;;;;;4.55;4.15;;;7.70;91.30;;;;;;5038092;28;20390;-75
2023/11/18 07:47:13;;;;;;;4.72;4.22;;;7.70;91.80;;;;;;5036396;28;20094;-74
2023/11/18 07:49:40;;;;;;;5.70;4.28;;;7.90;92.20;;;;;;5037656;28;20119;-72
2023/11/18 07:52:08;;;;;;;17.25;11.05;;;7.50;91.80;;;;;;5031915;28;20041;-73
2023/11/18 07:54:35;;;;;;;16.85;10.80;;;8.00;92.60;;;;;;5031187;28;20986;-73
2023/11/18 07:57:04;;;;;;;12.88;8.50;;;8.20;93.00;;;;;;5016721;28;20045;-74
2023/11/18 07:59:32;;;;;;;5.63;4.90;;;8.50;91.00;;;;;;5023056;28;20044;-74
2023/11/18 08:02:00;;;;;;;4.68;4.28;;;8.40;91.10;;;;;;5022975;28;20099;-73
2023/11/18 08:04:31;;;;;;;5.78;4.70;;;8.40;91.10;;;;;;5026594;28;20048;-75
2023/11/18 08:06:59;;;;;;;4.75;4.25;;;8.60;90.50;;;;;;5026616;28;20069;-75
2023/11/18 08:09:26;;;;;;;4.25;3.80;;;8.70;90.20;;;;;;5022610;28;20080;-74
2023/11/18 08:11:55;;;;;;;4.95;3.60;;;8.40;90.00;;;;;;5034328;28;20073;-74
2023/11/18 08:14:23;;;;;;;5.25;4.30;;;8.20;87.70;;;;;;5034822;28;20038;-74
2023/11/18 08:16:51;;;;;;;4.40;4.00;;;8.40;88.20;;;;;;5037959;28;20463;-75
2023/11/18 08:19:18;;;;;;;4.30;3.90;;;8.70;87.10;;;;;;5036634;28;20044;-72
2023/11/18 08:21:46;;;;;;;3.80;3.40;;;8.70;86.60;;;;;;5030726;28;20132;-71
2023/11/18 08:24:14;;;;;;;4.10;3.60;;;8.60;82.60;;;;;;5030303;28;20543;-74
2023/11/18 08:26:42;;;;;;;4.43;3.50;;;9.10;84.40;;;;;;5033856;28;20083;-73
2023/11/18 08:29:10;;;;;;;3.97;3.58;;;9.10;83.00;;;;;;5035101;28;20444;-74
2023/11/18 08:31:39;;;;;;;7.85;5.10;;;8.60;81.60;;;;;;5036012;28;20037;-74
2023/11/18 08:34:07;;;;;;;8.48;3.80;;;8.90;83.50;;;;;;5040177;28;20048;-73
2023/11/18 08:36:35;;;;;;;4.57;4.00;;;8.80;83.20;;;;;;5041584;28;20041;-75
2023/11/18 08:39:02;;;;;;;6.13;3.95;;;8.80;83.40;;;;;;5038605;28;20037;-75
2023/11/18 08:41:31;;;;;;;4.30;3.90;;;8.50;83.90;;;;;;5035875;28;20405;-79
2023/11/18 08:43:58;;;;;;;5.50;3.95;;;8.80;83.60;;;;;;5031411;28;20041;-77
2023/11/18 08:46:44;;;;;;;51.90;30.13;;;8.90;82.80;;;;;;5036496;28;20044;-80
2023/11/18 08:49:11;;;;;;;5.28;4.75;;;9.70;83.40;;;;;;5039581;28;20033;-73
2023/11/18 08:51:41;;;;;;;4.10;3.70;;;9.30;81.40;;;;;;5036679;28;20110;-76
2023/11/18 08:54:25;;;;;;;4.20;3.80;;;9.70;80.80;;;;;;5037371;28;20124;-75
2023/11/18 08:56:54;;;;;;;6.45;3.88;;;10.00;80.40;;;;;;5039740;28;20034;-73
2023/11/18 08:59:24;;;;;;;6.18;3.45;;;10.20;80.80;;;;;;5037949;28;20406;-75
2023/11/18 09:01:55;;;;;;;8.45;5.80;;;10.40;80.00;;;;;;5040746;28;20444;-74
2023/11/18 09:04:23;;;;;;;4.55;3.65;;;10.60;79.60;;;;;;5036647;28;20033;-73
2023/11/18 09:07:00;;;;;;;4.05;3.42;;;10.40;77.00;;;;;;5033555;28;20044;-77
2023/11/18 09:09:27;;;;;;;4.85;3.50;;;10.50;77.20;;;;;;5034763;28;20079;-75
2023/11/18 09:11:58;;;;;;;4.63;3.70;;;10.40;77.20;;;;;;5029290;28;20145;-79
2023/11/18 09:14:26;;;;;;;4.35;3.40;;;10.60;77.10;;;;;;5034523;28;20041;-80
2023/11/18 09:16:58;;;;;;;3.83;3.42;;;10.70;76.10;;;;;;5038302;28;20536;-85
2023/11/18 09:19:26;;;;;;;3.80;3.30;;;10.40;76.70;;;;;;5040960;28;20048;-74
2023/11/18 09:21:54;;;;;;;4.10;3.28;;;10.50;76.30;;;;;;5030910;28;20038;-73
2023/11/18 09:24:24;;;;;;;3.50;3.20;;;10.60;74.70;;;;;;5029551;28;20054;-76
2023/11/18 09:26:54;;;;;;;3.67;3.25;;;10.80;74.30;;;;;;5040579;28;20038;-73
2023/11/18 09:29:24;;;;;;;5.95;3.30;;;11.00;73.60;;;;;;5031455;28;20065;-75
2023/11/18 09:31:54;;;;;;;4.87;3.60;;;11.00;72.70;;;;;;5036694;28;20041;-75
2023/11/18 09:34:27;;;;;;;6.38;3.30;;;10.30;73.70;;;;;;5026750;28;20306;-73
2023/11/18 09:36:56;;;;;;;14.60;3.90;;;9.80;73.40;;;;;;5027776;28;20489;-78
2023/11/18 09:39:37;;;;;;;4.90;3.20;;;9.40;74.40;;;;;;5015886;28;20045;-72
2023/11/18 09:42:08;;;;;;;3.45;3.10;;;9.80;75.00;;;;;;5026977;28;20094;-68
2023/11/18 09:44:37;;;;;;;4.47;3.42;;;10.20;74.90;;;;;;5036726;28;20037;-71
2023/11/18 09:47:09;;;;;;;7.18;3.35;;;10.40;74.70;;;;;;5033502;28;20051;-72
2023/11/18 09:49:59;;;;;;;3.70;3.25;;;9.40;75.60;;;;;;5036954;28;20032;-73
2023/11/18 09:52:31;;;;;;;3.70;3.30;;;10.20;75.00;;;;;;5041661;28;20091;-71
2023/11/18 09:55:02;;;;;;;3.42;3.13;;;10.50;74.00;;;;;;5041120;28;20041;-71
2023/11/18 09:57:39;;;;;;;4.05;3.30;;;10.60;73.60;;;;;;5036819;28;20504;-76
2023/11/18 10:00:21;;;;;;;3.50;3.20;;;10.10;73.90;;;;;;5037035;28;20068;-71
2023/11/18 10:02:50;;;;;;;4.65;3.30;;;10.10;72.70;;;;;;5030957;28;20048;-72
2023/11/18 10:05:26;;;;;;;4.50;3.50;;;9.80;75.10;;;;;;5037548;28;20344;-73
2023/11/18 10:07:54;;;;;;;14.00;3.55;;;10.30;73.40;;;;;;5034898;28;20030;-79
2023/11/18 10:10:22;;;;;;;8.93;3.38;;;9.50;74.40;;;;;;5038314;28;20044;-75
2023/11/18 10:12:53;;;;;;;3.42;3.10;;;10.30;73.70;;;;;;5039071;28;20039;-74
2023/11/18 10:15:24;;;;;;;4.40;3.50;;;10.90;72.20;;;;;;5036613;28;20122;-72
2023/11/18 10:17:59;;;;;;;4.05;3.25;;;11.10;71.90;;;;;;5039839;28;20493;-72
2023/11/18 10:20:44;;;;;;;3.72;3.10;;;10.70;71.70;;;;;;5035759;28;20450;-72
2023/11/18 10:23:18;;;;;;;3.60;3.30;;;10.00;72.20;;;;;;5034868;28;20102;-70
2023/11/18 10:25:52;;;;;;;4.35;3.53;;;10.30;72.10;;;;;;5032425;28;20413;-71
2023/11/18 10:28:37;;;;;;;37.88;19.90;;;10.00;74.70;;;;;;5037734;28;20026;-72
2023/11/18 10:31:09;;;;;;;143.63;75.72;;;10.60;73.80;;;;;;5040189;28;20138;-72
2023/11/18 10:33:38;;;;;;;10.57;6.57;;;10.70;72.80;;;;;;5032328;28;20080;-70
2023/11/18 10:36:12;;;;;;;4.70;3.72;;;9.80;72.70;;;;;;5046232;28;20132;-70
2023/11/18 10:38:49;;;;;;;4.78;3.60;;;10.20;72.40;;;;;;5040131;28;20107;-71
2023/11/18 10:41:20;;;;;;;4.35;3.38;;;10.30;71.90;;;;;;5032195;28;20061;-71
2023/11/18 10:43:50;;;;;;;4.90;3.60;;;10.00;72.80;;;;;;5034847;28;20044;-73
2023/11/18 10:46:35;;;;;;;4.00;3.60;;;9.10;73.60;;;;;;5037726;28;20037;-76
2023/11/18 10:49:09;;;;;;;4.10;3.58;;;9.30;73.50;;;;;;5037000;28;20443;-73
2023/11/18 10:51:38;;;;;;;3.60;3.30;;;9.80;73.50;;;;;;5039476;28;20033;-73
2023/11/18 10:54:17;;;;;;;4.05;3.40;;;10.10;71.50;;;;;;5033745;28;20045;-72
2023/11/18 10:56:56;;;;;;;3.80;3.10;;;10.50;72.40;;;;;;5032406;28;20044;-70
2023/11/18 10:59:25;;;;;;;4.43;2.90;;;10.30;70.40;;;;;;5035099;28;20050;-72
2023/11/18 11:01:52;;;;;;;3.17;2.40;;;10.20;73.10;;;;;;5037026;28;20400;-71
2023/11/18 11:04:22;;;;;;;5.47;2.50;;;11.70;69.60;;;;;;5036280;28;20052;-71
2023/11/18 11:06:53;;;;;;;3.50;2.60;;;11.40;68.50;;;;;;5041269;28;20423;-70
2023/11/18 11:09:28;;;;;;;4.30;2.70;;;11.30;68.30;;;;;;5033966;28;20037;-73
2023/11/18 11:12:06;;;;;;;4.63;2.88;;;10.00;71.00;;;;;;5038814;28;20067;-72
2023/11/18 11:14:41;;;;;;;6.25;2.80;;;10.70;70.50;;;;;;5035123;28;20083;-72
2023/11/18 11:17:15;;;;;;;4.45;2.83;;;12.00;68.10;;;;;;5034110;28;20400;-73
2023/11/18 11:19:58;;;;;;;3.40;2.80;;;11.60;68.20;;;;;;5016839;28;20041;-72
2023/11/18 11:22:45;;;;;;;2.80;2.50;;;11.50;67.70;;;;;;5035446;28;20048;-72
2023/11/18 11:25:28;;;;;;;6.50;3.85;;;11.40;66.60;;;;;;5036689;28;20049;-72
2023/11/18 11:28:16;;;;;;;3.97;3.00;;;10.80;68.00;;;;;;5034757;28;20484;-73
2023/11/18 11:31:16;;;;;;;4.10;3.00;;;9.80;71.00;;;;;;5037310;28;20053;-74
2023/11/18 11:33:53;;;;;;;4.03;3.30;;;9.20;71.00;;;;;;5030407;28;20051;-77
2023/11/18 11:36:31;;;;;;;12.90;8.18;;;9.60;72.20;;;;;;5032464;28;20037;-75
2023/11/18 11:39:01;;;;;;;7.53;4.40;;;9.90;70.60;;;;;;5033021;28;20404;-73
2023/11/18 11:41:34;;;;;;;14.82;9.20;;;11.00;67.70;;;;;;5037338;28;20468;-75
2023/11/18 11:44:01;;;;;;;40.00;23.20;;;10.80;68.80;;;;;;5038951;28;20044;-74
2023/11/18 11:46:34;;;;;;;246.60;133.93;;;11.30;68.30;;;;;;5041136;28;20091;-73
2023/11/18 11:49:17;;;;;;;9.48;8.50;;;11.40;67.30;;;;;;5034964;28;20041;-77
2023/11/18 11:51:53;;;;;;;3.30;2.55;;;13.00;65.30;;;;;;5033704;28;20033;-74
2023/11/18 11:54:28;;;;;;;3.83;2.30;;;15.30;60.30;;;;;;5020242;28;20053;-75
2023/11/18 11:57:00;;;;;;;2.72;1.60;;;17.70;56.70;;;;;;5039107;28;20052;-75
2023/11/18 11:59:46;;;;;;;3.78;1.92;;;17.60;55.20;;;;;;5023888;28;20037;-74
2023/11/18 12:02:18;;;;;;;32.97;24.15;;;17.00;54.90;;;;;;5033779;28;20039;-74
2023/11/18 12:04:52;;;;;;;5.05;2.03;;;18.60;52.70;;;;;;5039641;28;20501;-76
2023/11/18 12:07:23;;;;;;;4.28;1.88;;;16.60;52.60;;;;;;5033221;28;20045;-78
2023/11/18 12:09:53;;;;;;;2.35;1.52;;;16.70;54.20;;;;;;5039289;28;20044;-78
2023/11/18 12:12:21;;;;;;;5.85;1.98;;;15.30;55.10;;;;;;5031222;28;20053;-80
2023/11/18 12:14:56;;;;;;;10.73;5.10;;;12.80;56.50;;;;;;5026230;28;20037;-73
2023/11/18 12:17:28;;;;;;;7.35;4.32;;;10.90;61.70;;;;;;5026154;28;20054;-74
2023/11/18 12:19:58;;;;;;;3.10;2.50;;;11.20;62.30;;;;;;5013950;28;20042;-73
2023/11/18 12:22:30;;;;;;;3.50;2.40;;;11.50;61.40;;;;;;5028735;28;20548;-75
2023/11/18 12:24:57;;;;;;;3.15;2.50;;;15.00;55.10;;;;;;5038444;28;20053;-77
2023/11/18 12:27:43;;;;;;;2.45;2.05;;;14.40;56.10;;;;;;5040321;28;20435;-76
2023/11/18 12:30:18;;;;;;;3.75;2.35;;;17.70;52.20;;;;;;5023368;28;20132;-74
2023/11/18 12:33:03;;;;;;;3.90;2.40;;;18.20;51.30;;;;;;5038991;28;20045;-73
2023/11/18 12:36:01;;;;;;;3.58;2.30;;;15.30;54.90;;;;;;5040063;28;20469;-75
2023/11/18 12:38:46;;;;;;;8.07;4.85;;;14.50;54.80;;;;;;5034332;28;20124;-77
2023/11/18 12:41:39;;;;;;;3.40;2.55;;;17.50;52.40;;;;;;5038920;28;20037;-77
2023/11/18 12:44:10;;;;;;;3.17;2.58;;;18.10;50.20;;;;;;5037499;28;20037;-79
2023/11/18 12:47:09;;;;;;;4.32;2.47;;;16.70;51.30;;;;;;5036549;28;20072;-75
2023/11/18 12:49:43;;;;;;;3.20;2.38;;;17.10;50.50;;;;;;5036335;28;20140;-76
2023/11/18 12:52:14;;;;;;;4.35;2.50;;;18.10;49.80;;;;;;5035226;28;20122;-75
2023/11/18 12:54:43;;;;;;;3.50;2.53;;;20.70;46.80;;;;;;5033556;28;20067;-74
2023/11/18 12:57:14;;;;;;;3.10;2.30;;;20.00;46.30;;;;;;5039242;28;20434;-75
2023/11/18 12:59:41;;;;;;;;;;;18.20;47.20;;;;;;5044560;28;20107;-76
2023/11/18 13:02:18;;;;;;;3.35;2.40;;;17.30;48.30;;;;;;5033173;28;19932;-78
2023/11/18 13:04:49;;;;;;;4.22;2.80;;;16.20;48.30;;;;;;5042420;28;20412;-75
2023/11/18 13:07:18;;;;;;;3.85;2.85;;;13.00;53.20;;;;;;5029152;28;20479;-75
2023/11/18 13:09:46;;;;;;;3.58;2.83;;;12.00;56.00;;;;;;5035246;28;20061;-75
2023/11/18 13:12:20;;;;;;;4.55;2.88;;;12.80;55.80;;;;;;5030696;28;20097;-77